createdAt,value
2018-04-24T00:00:47.665Z,16.79
2018-04-24T00:03:15.807Z,16.76
2018-04-24T00:05:44.730Z,16.76
2018-04-24T00:08:13.677Z,16.85
2018-04-24T00:10:41.818Z,16.86
2018-04-24T00:13:09.956Z,16.91
2018-04-24T00:15:38.097Z,16.89
2018-04-24T00:18:06.264Z,16.99
2018-04-24T00:20:34.400Z,17.08
2018-04-24T00:23:02.570Z,17.13
2018-04-24T00:25:30.704Z,17.22
2018-04-24T00:27:59.617Z,17.17
2018-04-24T00:30:27.764Z,17.17
2018-04-24T00:32:55.901Z,17.09
2018-04-24T00:35:24.032Z,17.03
2018-04-24T00:50:52.200Z,16.71
2018-04-24T00:53:38.161Z,16.85
2018-04-24T00:56:06.344Z,16.91
2018-04-24T00:58:35.276Z,16.92
2018-04-24T01:01:03.407Z,16.94
2018-04-24T01:03:31.538Z,16.93
2018-04-24T01:05:59.700Z,16.92
2018-04-24T01:08:27.847Z,16.94
2018-04-24T01:10:55.990Z,16.96
2018-04-24T01:13:24.133Z,16.97
2018-04-24T01:15:52.278Z,16.96
2018-04-24T01:18:20.412Z,16.89
2018-04-24T01:20:48.553Z,16.86
2018-04-24T01:23:16.757Z,16.80
2018-04-24T01:25:44.901Z,16.77
2018-04-24T01:28:13.032Z,16.72
2018-04-24T01:30:41.934Z,16.76
2018-04-24T01:33:10.832Z,16.83
2018-04-24T01:35:38.985Z,16.81
2018-04-24T01:38:07.885Z,16.76
2018-04-24T01:40:36.784Z,16.74
2018-04-24T01:43:05.705Z,16.70
2018-04-24T01:45:33.844Z,16.69
2018-04-24T01:48:02.746Z,16.72
2018-04-24T01:50:30.895Z,16.78
2018-04-24T01:52:59.799Z,16.84
2018-04-24T01:55:28.702Z,16.86
2018-04-24T01:57:56.864Z,16.84
2018-04-24T02:00:25.015Z,16.82
2018-04-24T02:02:53.154Z,16.88
2018-04-24T02:05:21.285Z,16.90
2018-04-24T02:07:50.200Z,16.89
2018-04-24T02:10:18.360Z,16.94
2018-04-24T02:12:47.275Z,17.03
2018-04-24T02:15:15.413Z,16.99
2018-04-24T02:17:44.321Z,16.98
2018-04-24T02:20:12.461Z,16.95
2018-04-24T02:22:40.681Z,17.02
2018-04-24T02:25:08.783Z,16.98
2018-04-24T02:27:37.685Z,17.04
2018-04-24T02:30:05.842Z,17.06
2018-04-24T02:32:34.001Z,17.07
2018-04-24T02:35:02.181Z,17.07
2018-04-24T02:37:30.353Z,17.09
2018-04-24T02:39:58.523Z,17.01
2018-04-24T02:42:26.721Z,16.94
2018-04-24T02:44:54.912Z,16.83
2018-04-24T02:47:23.084Z,16.88
2018-04-24T02:49:51.246Z,16.87
2018-04-24T02:52:19.420Z,16.84
2018-04-24T02:54:47.583Z,16.81
2018-04-24T02:57:15.757Z,16.86
2018-04-24T02:59:43.926Z,16.84
2018-04-24T03:02:12.091Z,16.84
2018-04-24T03:04:40.282Z,16.82
2018-04-24T03:07:08.461Z,16.85
2018-04-24T03:09:37.389Z,16.86
2018-04-24T03:12:06.330Z,16.88
2018-04-24T03:14:34.504Z,16.87
2018-04-24T03:17:02.731Z,16.85
2018-04-24T03:19:31.656Z,16.86
2018-04-24T03:21:59.851Z,16.88
2018-04-24T03:24:28.022Z,16.84
2018-04-24T03:26:56.186Z,16.86
2018-04-24T03:29:24.373Z,17.00
2018-04-24T03:31:52.547Z,16.89
2018-04-24T03:34:20.731Z,16.85
2018-04-24T03:36:48.929Z,16.84
2018-04-24T03:39:17.105Z,16.84
2018-04-24T03:41:45.257Z,16.84
2018-04-24T03:44:13.427Z,16.85
2018-04-24T03:46:41.602Z,16.85
2018-04-24T03:49:09.766Z,16.80
2018-04-24T03:51:37.946Z,16.78
2018-04-24T03:54:06.139Z,16.80
2018-04-24T03:56:34.313Z,16.73
2018-04-24T03:59:02.482Z,16.83
2018-04-24T04:01:30.656Z,16.87
2018-04-24T04:03:58.828Z,16.86
2018-04-24T04:06:26.985Z,16.87
2018-04-24T04:08:55.152Z,16.88
2018-04-24T04:11:23.316Z,16.89
2018-04-24T04:13:51.484Z,16.92
2018-04-24T04:16:19.659Z,16.93
2018-04-24T04:19:05.800Z,16.93
2018-04-24T04:21:51.876Z,17.04
2018-04-24T04:27:25.001Z,16.88
2018-04-24T04:29:53.186Z,16.92
2018-04-24T04:32:21.352Z,16.92
2018-04-24T04:34:49.521Z,16.88
2018-04-24T04:37:17.692Z,16.94
2018-04-24T04:39:45.861Z,16.96
2018-04-24T04:42:14.023Z,16.98
2018-04-24T04:44:42.200Z,17.05
2018-04-24T04:47:10.379Z,17.09
2018-04-24T04:49:38.552Z,17.11
2018-04-24T04:52:06.710Z,17.14
2018-04-24T04:54:34.876Z,17.30
2018-04-24T04:57:03.038Z,17.21
2018-04-24T04:59:31.982Z,17.22
2018-04-24T05:02:00.165Z,17.19
2018-04-24T05:04:28.347Z,17.23
2018-04-24T05:06:56.511Z,17.20
2018-04-24T05:09:24.690Z,17.20
2018-04-24T05:11:52.867Z,17.25
2018-04-24T05:14:21.033Z,17.35
2018-04-24T05:16:49.958Z,17.39
2018-04-24T05:19:18.893Z,17.42
2018-04-24T05:21:47.063Z,17.46
2018-04-24T05:24:15.234Z,17.50
2018-04-24T05:26:43.460Z,17.57
2018-04-24T05:29:11.626Z,17.68
2018-04-24T05:31:39.819Z,17.80
2018-04-24T05:34:08.043Z,17.85
2018-04-24T05:36:36.217Z,17.97
2018-04-24T05:39:04.436Z,18.06
2018-04-24T05:41:32.619Z,18.14
2018-04-24T05:44:00.822Z,18.16
2018-04-24T05:46:28.998Z,18.27
2018-04-24T05:48:57.933Z,18.34
2018-04-24T05:51:26.159Z,18.42
2018-04-24T05:53:55.086Z,18.47
2018-04-24T05:56:23.257Z,18.49
2018-04-24T05:58:51.425Z,18.51
2018-04-24T06:01:19.584Z,18.58
2018-04-24T06:03:47.774Z,18.65
2018-04-24T06:06:15.928Z,18.70
2018-04-24T06:08:44.124Z,18.69
2018-04-24T06:11:12.285Z,18.77
2018-04-24T06:13:40.448Z,18.72
2018-04-24T06:16:09.391Z,18.67
2018-04-24T06:18:37.557Z,18.68
2018-04-24T06:21:05.721Z,18.65
2018-04-24T06:23:33.891Z,18.63
2018-04-24T06:26:02.054Z,18.66
2018-04-24T06:28:30.308Z,18.74
2018-04-24T06:30:58.441Z,18.66
2018-04-24T06:33:26.617Z,18.65
2018-04-24T06:35:54.795Z,18.62
2018-04-24T06:38:23.002Z,18.69
2018-04-24T06:40:51.974Z,18.80
2018-04-24T06:43:20.186Z,18.97
2018-04-24T06:45:48.385Z,19.26
2018-04-24T06:48:16.557Z,19.36
2018-04-24T06:50:44.794Z,19.50
2018-04-24T06:53:13.728Z,19.52
2018-04-24T06:55:41.947Z,19.59
2018-04-24T06:58:10.152Z,19.60
2018-04-24T07:00:39.093Z,19.76
2018-04-24T07:03:07.282Z,19.89
2018-04-24T07:05:35.463Z,20.14
2018-04-24T07:08:03.652Z,20.36
2018-04-24T07:10:32.586Z,20.60
2018-04-24T07:13:00.761Z,20.66
2018-04-24T07:15:28.934Z,20.66
2018-04-24T07:17:57.140Z,20.52
2018-04-24T07:20:25.330Z,20.61
2018-04-24T07:22:53.507Z,20.76
2018-04-24T07:25:21.702Z,20.84
2018-04-24T07:27:50.646Z,20.85
2018-04-24T07:30:18.816Z,20.93
2018-04-24T07:32:47.088Z,21.03
2018-04-24T07:35:15.213Z,21.12
2018-04-24T07:37:44.185Z,21.33
2018-04-24T07:40:12.357Z,21.37
2018-04-24T07:42:40.529Z,21.28
2018-04-24T07:45:08.689Z,21.35
2018-04-24T07:47:36.870Z,21.27
2018-04-24T07:50:05.053Z,21.25
2018-04-24T07:52:33.268Z,21.18
2018-04-24T07:55:01.466Z,21.11
2018-04-24T07:57:29.688Z,21.00
2018-04-24T07:59:58.640Z,20.91
2018-04-24T08:02:26.806Z,20.75
2018-04-24T08:04:55.001Z,20.51
2018-04-24T08:07:23.185Z,20.45
2018-04-24T08:09:51.354Z,20.37
2018-04-24T08:12:19.524Z,20.17
2018-04-24T08:14:47.698Z,20.10
2018-04-24T08:17:15.870Z,20.15
2018-04-24T08:19:44.065Z,20.11
2018-04-24T08:22:12.243Z,19.94
2018-04-24T08:24:40.440Z,19.83
2018-04-24T08:27:09.480Z,19.75
2018-04-24T08:29:37.653Z,19.70
2018-04-24T08:32:05.838Z,19.65
2018-04-24T08:34:33.999Z,19.61
2018-04-24T08:37:02.169Z,19.61
2018-04-24T08:39:30.335Z,19.63
2018-04-24T08:41:58.508Z,19.48
2018-04-24T08:44:26.687Z,19.51
2018-04-24T08:46:54.848Z,19.55
2018-04-24T08:49:23.027Z,19.49
2018-04-24T08:51:51.207Z,19.48
2018-04-24T08:54:19.373Z,19.53
2018-04-24T08:56:47.571Z,19.56
2018-04-24T08:59:15.727Z,19.58
2018-04-24T09:01:43.899Z,19.64
2018-04-24T09:04:12.097Z,19.64
2018-04-24T09:06:40.279Z,19.61
2018-04-24T09:09:08.454Z,19.67
2018-04-24T09:11:36.694Z,19.73
2018-04-24T09:14:04.931Z,19.79
2018-04-24T09:16:33.172Z,19.81
2018-04-24T09:19:01.339Z,19.91
2018-04-24T09:21:29.574Z,19.94
2018-04-24T09:23:58.515Z,20.03
2018-04-24T09:26:26.685Z,20.05
2018-04-24T09:28:54.860Z,20.10
2018-04-24T09:31:28.652Z,20.13
2018-04-24T09:33:56.829Z,20.16
2018-04-24T09:36:25.006Z,20.09
2018-04-24T09:38:53.185Z,20.12
2018-04-24T09:41:21.366Z,20.13
2018-04-24T09:43:49.582Z,20.15
2018-04-24T09:46:17.782Z,20.25
2018-04-24T09:48:46.712Z,20.38
2018-04-24T09:51:14.974Z,20.41
2018-04-24T09:53:43.088Z,20.43
2018-04-24T09:56:11.260Z,20.45
2018-04-24T09:58:39.450Z,20.49
2018-04-24T10:01:08.414Z,20.46
2018-04-24T10:03:36.593Z,20.59
2018-04-24T10:52:21.591Z,21.17
2018-04-24T10:54:49.781Z,21.88
2018-04-24T10:57:17.945Z,22.44
2018-04-24T10:59:46.120Z,22.86
2018-04-24T11:02:14.301Z,23.40
2018-04-24T11:04:42.469Z,23.69
2018-04-24T11:07:10.642Z,23.98
2018-04-24T11:09:38.809Z,24.11
2018-04-24T11:12:06.981Z,24.42
2018-04-24T11:14:35.171Z,24.28
2018-04-24T11:17:03.400Z,24.55
2018-04-24T11:19:32.306Z,25.21
2018-04-24T11:22:00.509Z,25.53
2018-04-24T11:24:28.686Z,25.64
2018-04-24T11:26:56.857Z,25.86
2018-04-24T11:29:25.054Z,26.43
2018-04-24T11:31:54.000Z,26.69
2018-04-24T11:34:22.173Z,26.90
2018-04-24T11:36:50.360Z,27.95
2018-04-24T11:39:18.565Z,28.73
2018-04-24T11:41:46.755Z,29.23
2018-04-24T11:44:15.694Z,29.08
2018-04-24T11:46:43.929Z,29.84
2018-04-24T11:49:12.863Z,30.46
2018-04-24T11:51:41.046Z,30.85
2018-04-24T11:54:09.221Z,31.60
2018-04-24T11:56:37.385Z,31.83
2018-04-24T11:59:05.553Z,31.32
2018-04-24T12:01:33.731Z,31.22
2018-04-24T12:04:01.900Z,31.13
2018-04-24T12:06:30.076Z,31.29
2018-04-24T12:08:58.244Z,31.73
2018-04-24T12:11:26.421Z,31.84
2018-04-24T12:13:54.580Z,31.58
2018-04-24T12:16:22.740Z,31.24
2018-04-24T12:18:51.684Z,31.59
2018-04-24T12:21:19.889Z,32.33
2018-04-24T12:23:48.828Z,33.24
2018-04-24T12:26:17.001Z,33.63
2018-04-24T12:28:45.184Z,33.91
2018-04-24T12:31:13.364Z,34.60
2018-04-24T12:33:41.530Z,34.97
2018-04-24T12:36:09.695Z,35.65
2018-04-24T12:38:37.865Z,38.12
2018-04-24T12:41:06.053Z,40.40
2018-04-24T12:43:34.223Z,41.72
2018-04-24T12:46:02.406Z,42.90
2018-04-24T12:48:30.589Z,43.13
2018-04-24T12:50:58.771Z,40.79
2018-04-24T12:53:27.002Z,39.02
2018-04-24T12:55:55.153Z,40.46
2018-04-24T12:58:24.088Z,41.81
2018-04-24T13:00:52.261Z,41.85
2018-04-24T13:03:20.436Z,40.00
2018-04-24T13:05:48.597Z,39.31
2018-04-24T13:08:16.774Z,38.00
2018-04-24T13:10:44.959Z,35.99
2018-04-24T13:13:13.121Z,33.77
2018-04-24T13:15:41.297Z,32.59
2018-04-24T13:18:09.460Z,31.04
2018-04-24T13:20:38.389Z,29.73
2018-04-24T13:23:06.553Z,29.35
2018-04-24T13:25:34.822Z,28.79
2018-04-24T13:28:02.940Z,28.56
2018-04-24T13:30:31.121Z,28.00
2018-04-24T13:32:59.304Z,27.68
2018-04-24T13:35:28.256Z,28.30
2018-04-24T13:37:56.429Z,29.34
2018-04-24T13:40:24.604Z,29.19
2018-04-24T13:42:52.781Z,29.73
2018-04-24T13:45:21.193Z,29.16
2018-04-24T13:47:49.373Z,28.87
2018-04-24T13:50:17.545Z,27.80
2018-04-24T13:52:45.728Z,27.51
2018-04-24T13:55:14.665Z,27.22
2018-04-24T13:57:42.833Z,27.05
2018-04-24T14:00:11.026Z,27.46
2018-04-24T14:02:39.216Z,27.70
2018-04-24T14:05:07.385Z,27.61
2018-04-24T14:07:35.557Z,28.46
2018-04-24T14:10:03.729Z,28.64
2018-04-24T14:12:31.908Z,28.61
2018-04-24T14:15:00.081Z,28.36
2018-04-24T14:17:28.313Z,28.93
2018-04-24T14:19:56.448Z,30.04
2018-04-24T14:22:24.623Z,31.13
2018-04-24T14:24:52.814Z,32.39
2018-04-24T14:27:21.746Z,34.03
2018-04-24T14:29:49.932Z,35.75
2018-04-24T14:32:18.109Z,37.01
2018-04-24T14:34:46.281Z,39.31
2018-04-24T14:37:14.468Z,40.27
2018-04-24T14:39:42.663Z,40.13
2018-04-24T14:42:10.849Z,39.53
2018-04-24T14:44:39.042Z,38.69
2018-04-24T14:47:07.995Z,36.99
2018-04-24T14:49:36.170Z,35.48
2018-04-24T14:52:04.332Z,34.34
2018-04-24T14:54:32.530Z,32.63
2018-04-24T14:57:00.706Z,31.86
2018-04-24T14:59:28.884Z,32.13
2018-04-24T15:01:57.065Z,33.49
2018-04-24T15:04:26.017Z,34.57
2018-04-24T15:06:54.207Z,35.14
2018-04-24T15:09:22.378Z,35.48
2018-04-24T15:11:50.543Z,35.05
2018-04-24T15:14:18.720Z,34.97
2018-04-24T15:16:46.898Z,34.97
2018-04-24T15:19:15.063Z,33.84
2018-04-24T15:21:43.249Z,33.42
2018-04-24T15:24:11.441Z,32.85
2018-04-24T15:26:40.373Z,32.41
2018-04-24T15:29:08.568Z,31.80
2018-04-24T15:31:36.752Z,31.09
2018-04-24T15:34:04.958Z,30.70
2018-04-24T15:36:33.139Z,30.07
2018-04-24T15:39:01.320Z,29.66
2018-04-24T15:41:30.272Z,29.39
2018-04-24T15:43:58.446Z,29.35
2018-04-24T15:46:26.633Z,29.38
2018-04-24T15:48:54.807Z,29.58
2018-04-24T15:51:23.148Z,29.59
2018-04-24T15:53:51.336Z,29.45
2018-04-24T15:56:19.524Z,29.43
2018-04-24T15:58:47.694Z,29.63
2018-04-24T16:01:15.868Z,29.26
2018-04-24T16:03:44.042Z,28.99
2018-04-24T16:06:12.222Z,29.34
2018-04-24T16:08:40.406Z,29.35
2018-04-24T16:11:08.607Z,29.53
2018-04-24T16:13:36.783Z,28.92
2018-04-24T16:16:04.961Z,28.59
2018-04-24T16:18:33.892Z,28.62
2018-04-24T16:21:02.065Z,28.43
2018-04-24T16:23:30.254Z,28.54
2018-04-24T16:25:58.432Z,28.17
2018-04-24T16:28:26.613Z,28.26
2018-04-24T16:30:54.820Z,28.71
2018-04-24T16:33:23.774Z,28.97
2018-04-24T16:35:51.978Z,28.95
2018-04-24T16:38:20.132Z,29.10
2018-04-24T16:40:48.296Z,29.04
2018-04-24T16:43:16.477Z,28.92
2018-04-24T16:45:44.647Z,28.50
2018-04-24T16:48:12.876Z,28.44
2018-04-24T16:50:41.809Z,28.28
2018-04-24T16:53:09.980Z,28.40
2018-04-24T16:55:38.917Z,28.48
2018-04-24T16:58:07.130Z,28.32
2018-04-24T17:00:35.316Z,28.00
2018-04-24T17:03:03.508Z,27.83
2018-04-24T17:05:31.719Z,27.62
2018-04-24T17:07:59.901Z,27.50
2018-04-24T17:10:28.854Z,27.31
2018-04-24T17:12:57.070Z,27.13
2018-04-24T17:15:26.054Z,27.00
2018-04-24T17:18:00.407Z,26.85
2018-04-24T17:20:37.568Z,26.53
2018-04-24T17:23:12.206Z,26.12
2018-04-24T17:25:47.546Z,25.90
2018-04-24T17:28:16.377Z,25.64
2018-04-24T17:31:01.909Z,25.42
2018-04-24T17:33:44.519Z,25.24
2018-04-24T17:36:13.348Z,25.01
2018-04-24T17:38:41.638Z,24.89
2018-04-24T17:41:09.804Z,24.75
2018-04-24T17:43:37.985Z,24.57
2018-04-24T17:46:06.165Z,24.42
2018-04-24T17:48:34.345Z,24.21
2018-04-24T17:51:02.529Z,24.11
2018-04-24T17:53:30.714Z,23.91
2018-04-24T17:55:58.894Z,23.67
2018-04-24T17:58:27.066Z,23.53
2018-04-24T18:00:55.241Z,23.32
2018-04-24T18:03:23.424Z,23.13
2018-04-24T18:05:51.617Z,22.96
2018-04-24T18:08:20.545Z,22.80
2018-04-24T18:10:48.720Z,22.70
2018-04-24T18:13:16.890Z,22.66
2018-04-24T18:15:45.080Z,22.51
2018-04-24T18:18:13.261Z,22.33
2018-04-24T18:20:41.432Z,22.18
2018-04-24T18:23:09.615Z,22.08
2018-04-24T18:25:37.803Z,21.93
2018-04-24T18:28:05.983Z,21.80
2018-04-24T18:30:34.157Z,21.57
2018-04-24T18:33:02.401Z,21.53
2018-04-24T18:35:30.607Z,21.45
2018-04-24T18:37:58.772Z,21.39
2018-04-24T18:40:26.964Z,21.19
2018-04-24T18:42:55.146Z,21.10
2018-04-24T18:45:24.115Z,21.04
2018-04-24T18:47:52.300Z,20.83
2018-04-24T18:50:20.503Z,20.80
2018-04-24T18:52:49.655Z,20.72
2018-04-24T18:55:17.825Z,20.60
2018-04-24T18:57:45.992Z,20.56
2018-04-24T19:00:14.178Z,20.50
2018-04-24T19:02:42.486Z,20.47
2018-04-24T19:05:11.435Z,20.47
2018-04-24T19:07:39.656Z,20.42
2018-04-24T19:10:08.607Z,20.36
2018-04-24T19:12:36.787Z,20.33
2018-04-24T19:15:04.963Z,20.30
2018-04-24T19:17:33.136Z,20.28
2018-04-24T19:20:01.328Z,20.19
2018-04-24T19:22:29.555Z,20.17
2018-04-24T19:25:03.383Z,20.19
2018-04-24T19:27:31.596Z,20.05
2018-04-24T19:29:59.774Z,19.98
2018-04-24T19:32:31.560Z,19.93
2018-04-24T19:34:59.780Z,19.84
2018-04-24T19:37:27.950Z,19.75
2018-04-24T19:40:01.673Z,19.72
2018-04-24T19:42:29.857Z,19.64
2018-04-24T19:44:58.027Z,19.64
2018-04-24T19:47:26.226Z,19.57
2018-04-24T19:50:00.766Z,19.53
2018-04-24T19:52:28.974Z,19.58
2018-04-24T19:55:02.703Z,19.55
2018-04-24T19:57:30.897Z,19.49
2018-04-24T19:59:59.836Z,19.40
2018-04-24T20:02:28.026Z,19.40
2018-04-24T20:04:56.287Z,19.30
2018-04-24T20:07:24.505Z,19.30
2018-04-24T20:09:52.690Z,19.24
2018-04-24T20:12:21.638Z,19.20
2018-04-24T20:14:49.809Z,19.16
2018-04-24T20:17:17.983Z,19.08
2018-04-24T20:19:46.160Z,19.06
2018-04-24T20:22:14.333Z,19.06
2018-04-24T20:24:42.506Z,19.01
2018-04-24T20:27:10.675Z,18.94
2018-04-24T20:29:38.848Z,18.93
2018-04-24T20:32:07.038Z,18.90
2018-04-24T20:34:35.220Z,18.91
2018-04-24T20:37:03.417Z,18.86
2018-04-24T20:39:31.592Z,18.79
2018-04-24T20:42:00.557Z,18.74
2018-04-24T20:44:28.750Z,18.71
2018-04-24T20:46:56.948Z,18.73
2018-04-24T20:49:25.894Z,18.76
2018-04-24T20:51:54.076Z,18.75
2018-04-24T20:54:22.302Z,18.78
2018-04-24T20:56:51.246Z,18.77
2018-04-24T20:59:19.451Z,18.68
2018-04-24T21:01:48.392Z,18.66
2018-04-24T21:04:16.574Z,18.63
2018-04-24T21:06:44.770Z,18.67
2018-04-24T21:09:12.959Z,18.53
2018-04-24T21:11:41.178Z,18.48
2018-04-24T21:14:09.353Z,18.41
2018-04-24T21:16:37.605Z,18.33
2018-04-24T21:19:06.547Z,18.28
2018-04-24T21:21:34.725Z,18.21
2018-04-24T21:24:02.901Z,18.12
2018-04-24T21:26:31.081Z,18.04
2018-04-24T21:28:59.245Z,18.07
2018-04-24T21:31:27.413Z,18.03
2018-04-24T21:33:55.598Z,18.03
2018-04-24T21:36:23.770Z,18.04
2018-04-24T21:38:51.964Z,18.02
2018-04-24T21:41:20.196Z,17.92
2018-04-24T21:43:48.329Z,17.91
2018-04-24T21:46:16.510Z,17.87
2018-04-24T21:48:45.449Z,17.84
2018-04-24T21:51:13.608Z,17.82
2018-04-24T21:53:41.788Z,17.81
2018-04-24T21:56:09.954Z,17.81
2018-04-24T21:58:38.127Z,17.74
2018-04-24T22:01:06.321Z,17.63
2018-04-24T22:03:34.513Z,17.59
2018-04-24T22:06:02.678Z,17.53
2018-04-24T22:08:30.850Z,17.54
2018-04-24T22:10:59.044Z,17.57
2018-04-24T22:13:27.300Z,17.56
2018-04-24T22:15:55.438Z,17.52
2018-04-24T22:18:24.373Z,17.49
2018-04-24T22:20:52.539Z,17.46
2018-04-24T22:23:20.742Z,17.44
2018-04-24T22:25:48.904Z,17.40
2018-04-24T22:28:17.064Z,17.30
2018-04-24T22:30:45.244Z,17.33
2018-04-24T22:33:13.453Z,17.28
2018-04-24T22:35:41.685Z,17.25
2018-04-24T22:38:09.865Z,17.25
2018-04-24T22:40:38.148Z,17.30
2018-04-24T22:43:06.261Z,17.23
2018-04-24T22:45:35.200Z,17.18
2018-04-24T22:48:03.361Z,17.14
2018-04-24T22:50:31.565Z,17.06
2018-04-24T22:52:59.738Z,17.05
2018-04-24T22:55:27.907Z,17.03
2018-04-24T22:57:56.177Z,16.98
2018-04-24T23:00:24.342Z,16.99
2018-04-24T23:02:52.528Z,16.96
2018-04-24T23:05:20.701Z,16.94
2018-04-24T23:07:48.873Z,16.92
2018-04-24T23:10:34.890Z,16.91
2018-04-24T23:13:20.941Z,16.86
2018-04-24T23:16:06.783Z,16.86
2018-04-24T23:18:52.717Z,16.84
2018-04-24T23:21:20.132Z,16.75
2018-04-24T23:23:48.298Z,16.72
2018-04-24T23:26:16.578Z,16.74
2018-04-24T23:28:44.704Z,16.71
2018-04-24T23:31:12.875Z,16.68
2018-04-24T23:33:41.077Z,16.62
2018-04-24T23:36:09.278Z,16.63
2018-04-24T23:38:37.440Z,16.54
2018-04-24T23:41:05.615Z,16.53
2018-04-24T23:43:33.797Z,16.54
2018-04-24T23:46:01.961Z,16.49
2018-04-24T23:48:30.133Z,16.47
2018-04-24T23:50:58.300Z,16.46
2018-04-24T23:53:26.474Z,16.44
2018-04-24T23:55:54.658Z,16.45
2018-04-24T23:58:22.827Z,16.43
